.
WxDataArchive / Data Records for 2008-04-08
2008-04-07 April 2008 2008-04-09

Data Records for Tuesday, 08 April 2008

Time	Temp	Chill	HIndex	Humid	Dewpt	 Wind 	HiWind	WindDir	Rain 	Barom 
-----	----	-----	------	-----	-----	------	------	-------	-----	----- 
00:00	44.3	44.3	44.3	65	33.3	0	0	---	0.00	30.014 
00:05	44.1	44.1	44.1	65	33.1	0	0	---	0.00	30.015 
00:10	43.8	43.8	43.8	65	32.8	0	0	---	0.00	30.016 
00:15	43.6	43.6	43.6	65	32.6	0	1	315	0.00	30.019 
00:20	43.6	43.6	43.6	66	33.0	0	1	315	0.00	30.023 
00:25	43.6	43.6	43.6	65	32.6	0	0	---	0.00	30.024 
00:30	43.8	43.8	43.8	66	33.2	0	1	315	0.00	30.031 
00:35	43.6	43.6	43.6	65	32.6	0	0	---	0.00	30.031 
00:40	43.6	43.6	43.6	65	32.6	0	0	---	0.00	30.030 
00:45	43.5	43.5	43.5	66	32.9	0	0	---	0.00	30.037 
00:50	43.3	43.3	43.3	66	32.7	0	0	---	0.00	30.044 
00:55	43.3	43.3	43.3	66	32.7	0	0	---	0.00	30.045 
01:00	43.1	43.1	43.1	67	32.9	0	0	---	0.00	30.042 
01:05	43.1	43.1	43.1	67	32.9	0	0	---	0.00	30.051 
01:10	43.1	43.1	43.1	68	33.3	0	1	315	0.00	30.055 
01:15	42.9	42.9	42.9	68	33.1	0	0	---	0.00	30.051 
01:20	42.9	42.9	42.9	68	33.1	0	1	315	0.00	30.050 
01:25	42.9	42.9	42.9	68	33.1	0	1	315	0.00	30.051 
01:30	43.1	43.1	43.1	67	32.9	0	1	315	0.00	30.048 
01:35	43.1	43.1	43.1	68	33.3	0	0	---	0.00	30.050 
01:40	42.9	42.9	42.9	67	32.7	0	1	315	0.00	30.048 
01:45	42.9	42.9	42.9	68	33.1	0	1	315	0.00	30.048 
01:50	42.9	42.9	42.9	68	33.1	0	0	---	0.00	30.041 
01:55	42.8	42.8	42.8	68	33.0	0	0	---	0.00	30.042 
02:00	42.8	42.8	42.8	68	33.0	0	0	---	0.00	30.039 
02:05	42.8	42.8	42.8	69	33.3	0	1	315	0.00	30.040 
02:10	42.8	42.8	42.8	69	33.3	0	1	315	0.00	30.035 
02:15	42.9	42.9	42.9	68	33.1	0	1	315	0.00	30.032 
02:20	42.9	42.9	42.9	69	33.4	0	1	315	0.00	30.027 
02:25	43.1	43.1	43.1	69	33.6	0	1	315	0.00	30.031 
02:30	43.1	43.1	43.1	69	33.6	0	1	315	0.00	30.031 
02:35	43.1	43.1	43.1	69	33.6	0	2	315	0.00	30.034 
02:40	43.1	43.1	43.1	69	33.6	1	3	112	0.00	30.024 
02:45	43.1	43.1	43.1	69	33.6	1	2	112	0.00	30.027 
02:50	43.1	43.1	43.1	70	34.0	1	3	112	0.00	30.022 
02:55	42.9	42.9	42.9	70	33.8	1	2	112	0.00	30.022 
03:00	42.8	42.8	42.8	70	33.7	1	3	90	0.00	30.026 
03:05	42.6	42.6	42.6	70	33.5	0	1	90	0.00	30.028 
03:10	42.5	42.5	42.5	71	33.8	0	1	90	0.00	30.031 
03:15	42.3	42.3	42.3	71	33.6	0	1	90	0.00	30.032 
03:20	42.2	42.2	42.2	71	33.5	0	0	---	0.00	30.034 
03:25	42.1	42.1	42.1	72	33.7	0	1	90	0.00	30.033 
03:30	42.1	42.1	42.1	71	33.4	0	1	90	0.00	30.033 
03:35	41.9	41.9	41.9	72	33.5	0	1	90	0.00	30.034 
03:40	41.9	41.9	41.9	72	33.5	0	1	90	0.00	30.033 
03:45	41.8	41.8	41.8	72	33.4	0	2	90	0.00	30.043 
03:50	41.6	41.6	41.6	73	33.6	0	0	---	0.00	30.048 
03:55	41.6	41.6	41.6	72	33.3	0	1	90	0.00	30.049 
04:00	41.5	41.5	41.5	73	33.5	0	1	90	0.00	30.054 
04:05	41.5	41.5	41.5	73	33.5	0	1	90	0.00	30.052 
04:10	41.5	41.5	41.5	73	33.5	0	1	90	0.00	30.055 
04:15	41.5	41.5	41.5	73	33.5	0	1	90	0.00	30.053 
04:20	41.6	41.6	41.6	73	33.6	0	2	90	0.00	30.051 
04:25	41.6	41.6	41.6	72	33.3	0	1	90	0.00	30.052 
04:30	41.8	41.8	41.8	73	33.8	0	0	---	0.00	30.065 
04:35	41.8	41.8	41.8	73	33.8	0	1	90	0.00	30.067 
04:40	41.6	41.6	41.6	73	33.6	0	1	90	0.00	30.072 
04:45	41.6	41.6	41.6	73	33.6	0	0	---	0.00	30.072 
04:50	41.5	41.5	41.5	73	33.5	0	1	90	0.00	30.073 
04:55	41.3	41.3	41.3	73	33.3	0	0	---	0.00	30.079 
05:00	41.1	41.1	41.1	74	33.5	0	0	---	0.00	30.079 
05:05	40.8	40.8	40.8	74	33.2	0	0	---	0.00	30.081 
05:10	40.6	40.6	40.6	74	33.0	0	0	---	0.00	30.082 
05:15	40.3	40.3	40.3	75	33.0	0	1	90	0.00	30.073 
05:20	40.1	40.1	40.1	76	33.2	0	0	---	0.00	30.073 
05:25	39.8	39.8	39.8	77	33.2	0	0	---	0.00	30.072 
05:30	39.6	39.6	39.6	77	33.0	0	1	90	0.00	30.068 
05:35	39.5	39.5	39.5	78	33.2	0	0	---	0.00	30.066 
05:40	39.3	39.3	39.3	78	33.0	0	1	90	0.00	30.060 
05:45	39.2	39.2	39.2	78	32.9	0	0	---	0.00	30.055 
05:50	39.3	39.3	39.3	79	33.3	0	0	---	0.00	30.046 
05:55	39.3	39.3	39.3	80	33.7	0	1	90	0.00	30.054 
06:00	39.3	39.3	39.3	80	33.7	0	1	90	0.00	30.050 
06:05	39.3	39.3	39.3	80	33.7	0	1	90	0.00	30.052 
06:10	39.3	39.3	39.3	80	33.7	0	0	---	0.00	30.059 
06:15	39.2	39.2	39.2	80	33.6	0	0	---	0.00	30.058 
06:20	39.1	39.1	39.1	81	33.8	0	1	90	0.00	30.055 
06:25	39.1	39.1	39.1	81	33.8	0	0	---	0.00	30.060 
06:30	38.9	38.9	38.9	81	33.6	0	0	---	0.00	30.063 
06:35	38.9	38.9	38.9	81	33.6	0	0	---	0.00	30.064 
06:40	38.9	38.9	38.9	81	33.6	0	0	---	0.00	30.067 
06:45	39.1	39.1	39.1	81	33.8	0	0	---	0.00	30.068 
06:50	39.3	39.3	39.3	81	34.0	0	0	---	0.00	30.075 
06:55	39.5	39.5	39.5	81	34.2	0	0	---	0.00	30.076 
07:00	39.9	39.9	39.9	80	34.2	0	1	90	0.00	30.074 
07:05	40.2	40.2	40.2	80	34.5	0	0	---	0.00	30.079 
07:10	40.5	40.5	40.5	79	34.5	0	0	---	0.00	30.084 
07:15	40.9	40.9	40.9	78	34.6	0	1	90	0.00	30.082 
07:20	41.2	41.2	41.2	76	34.2	0	2	90	0.00	30.081 
07:25	41.6	41.6	41.6	76	34.6	0	1	90	0.00	30.080 
07:30	41.9	41.9	41.9	74	34.2	1	4	90	0.00	30.082 
07:35	42.2	42.2	42.2	73	34.2	0	3	112	0.00	30.081 
07:40	42.6	42.6	42.6	72	34.2	0	1	112	0.00	30.088 
07:45	42.8	42.8	42.8	72	34.4	1	2	112	0.00	30.090 
07:50	42.9	42.9	42.9	71	34.2	1	3	112	0.00	30.091 
07:55	43.2	43.2	43.2	71	34.4	1	3	112	0.00	30.092 
08:00	43.3	43.3	43.3	71	34.5	2	4	112	0.00	30.091 
08:05	43.3	43.3	43.3	72	34.9	1	3	112	0.00	30.093 
08:10	43.5	43.5	43.5	72	35.1	1	3	112	0.00	30.095 
08:15	43.6	43.6	43.6	70	34.5	1	4	112	0.00	30.096 
08:20	43.8	43.8	43.8	69	34.3	2	4	112	0.00	30.095 
08:25	43.9	43.9	43.9	69	34.4	2	6	112	0.00	30.093 
08:30	44.1	44.1	44.1	70	35.0	2	5	112	0.00	30.093 
08:35	44.2	44.2	44.2	69	34.7	2	6	112	0.00	30.092 
08:40	44.5	42.5	44.5	69	35.0	4	7	112	0.00	30.091 
08:45	44.6	44.6	44.6	69	35.1	3	7	90	0.00	30.091 
08:50	45.1	45.1	45.1	69	35.5	1	4	112	0.00	30.090 
08:55	45.2	45.2	45.2	67	34.9	2	5	112	0.00	30.091 
09:00	45.7	45.7	45.7	69	36.1	2	7	90	0.00	30.092 
09:05	46.4	46.4	46.4	67	36.0	2	5	90	0.00	30.094 
09:10	47.1	47.1	47.1	65	35.9	2	9	112	0.00	30.093 
09:15	47.6	46.1	47.6	63	35.6	4	9	112	0.00	30.090 
09:20	47.9	46.4	47.9	62	35.5	4	10	112	0.00	30.086 
09:25	48.5	47.1	48.5	61	35.7	4	10	112	0.00	30.083 
09:30	48.8	46.8	48.8	61	36.0	5	10	112	0.00	30.077 
09:35	49.2	47.9	49.2	59	35.5	4	7	112	0.00	30.077 
09:40	48.9	47.6	48.9	61	36.0	4	9	112	0.00	30.073 
09:45	49.5	47.6	49.5	59	35.8	5	10	90	0.00	30.069 
09:50	49.9	48.8	49.9	60	36.6	4	9	112	0.00	30.060 
09:55	50.4	50.4	50.4	57	35.7	7	14	112	0.00	30.059 
10:00	51.0	51.0	51.0	56	35.9	6	12	112	0.00	30.060 
10:05	51.4	51.4	51.4	58	37.1	6	11	112	0.00	30.065 
10:10	52.3	52.3	52.3	56	37.1	3	7	135	0.00	30.065 
10:15	53.1	53.1	53.1	52	35.9	4	11	112	0.00	30.059 
10:20	53.2	53.2	53.2	54	37.0	6	10	90	0.00	30.059 
10:25	53.9	53.9	53.9	50	35.7	4	9	90	0.00	30.061 
10:30	54.1	54.1	54.1	53	37.4	5	10	112	0.00	30.062 
10:35	54.4	54.4	54.4	52	37.1	4	8	112	0.00	30.059 
10:40	55.0	55.0	55.0	49	36.2	5	8	112	0.00	30.053 
10:45	55.4	55.4	55.4	49	36.6	5	10	112	0.00	30.050 
10:50	55.0	55.0	55.0	51	37.2	6	12	112	0.00	30.048 
10:55	55.7	55.7	55.7	52	38.3	5	14	112	0.00	30.044 
11:00	55.9	55.9	55.9	52	38.5	6	12	112	0.00	30.041 
11:05	55.9	55.9	55.9	51	38.0	5	11	112	0.00	30.044 
11:10	56.3	56.3	56.3	53	39.4	5	11	112	0.00	30.044 
11:15	56.7	56.7	56.7	51	38.8	6	14	90	0.00	30.044 
11:20	57.0	57.0	57.0	52	39.5	5	10	112	0.00	30.041 
11:25	57.6	57.6	57.6	52	40.1	4	8	112	0.00	30.035 
11:30	58.1	58.1	58.1	51	40.1	5	10	112	0.00	30.027 
11:35	58.9	58.9	58.9	50	40.3	5	11	112	0.00	30.027 
11:40	59.2	59.2	59.2	47	39.0	6	13	112	0.00	30.025 
11:45	59.3	59.3	59.3	48	39.6	6	11	112	0.00	30.019 
11:50	59.6	59.6	59.6	48	39.9	5	13	112	0.00	30.013 
11:55	60.2	60.2	60.2	46	39.3	6	15	112	0.00	30.012 
12:00	60.2	60.2	60.2	47	39.9	5	11	112	0.00	30.010 
12:05	60.5	60.5	60.5	48	40.7	6	12	112	0.00	30.012 
12:10	61.3	61.3	61.3	44	39.2	5	13	112	0.00	30.009 
12:15	62.1	62.1	62.1	42	38.7	4	11	90	0.00	30.011 
12:20	62.3	62.3	62.3	44	40.1	5	12	112	0.00	30.010 
12:25	62.1	62.1	62.1	43	39.3	5	10	112	0.00	30.011 
12:30	61.6	61.6	61.6	44	39.5	4	10	112	0.00	30.009 
12:35	61.3	61.3	61.3	42	38.0	6	13	112	0.00	30.005 
12:40	61.2	61.2	61.2	43	38.5	6	16	112	0.00	30.005 
12:45	61.2	61.2	61.2	43	38.5	5	14	112	0.00	30.005 
12:50	61.2	61.2	61.2	44	39.1	5	13	112	0.00	30.001 
12:55	61.3	61.3	61.3	45	39.8	5	13	112	0.00	29.997 
13:00	61.5	61.5	61.5	45	40.0	5	11	112	0.00	29.996 
13:05	61.6	61.6	61.6	45	40.0	4	11	112	0.00	30.000 
13:10	62.0	62.0	62.0	45	40.4	3	7	112	0.00	30.002 
13:15	62.1	62.1	62.1	43	39.3	4	9	112	0.00	30.004 
13:20	62.4	62.4	62.4	43	39.6	4	10	112	0.00	30.002 
13:25	62.7	62.7	62.7	43	39.9	5	10	112	0.00	29.993 
13:30	63.5	63.5	63.5	43	40.6	3	7	112	0.00	29.992 
13:35	64.3	64.3	64.3	40	39.5	4	9	112	0.00	29.992 
13:40	64.5	64.5	64.5	41	40.3	4	9	112	0.00	29.992 
13:45	64.5	64.5	64.5	39	39.0	3	7	90	0.00	29.990 
13:50	64.7	64.7	64.7	40	39.8	4	7	90	0.00	29.989 
13:55	64.8	64.8	64.8	40	39.9	5	10	112	0.00	29.987 
14:00	65.0	65.0	65.0	40	40.1	4	10	90	0.00	29.987 
14:05	65.6	65.6	65.6	40	40.6	3	6	112	0.00	29.980 
14:10	65.8	65.8	65.8	40	40.8	6	11	112	0.00	29.977 
14:15	66.1	66.1	66.1	40	41.1	5	12	112	0.00	29.975 
14:20	66.4	66.4	66.4	38	40.0	4	10	112	0.00	29.972 
14:25	66.8	66.8	66.8	39	41.0	4	10	112	0.00	29.966 
14:30	66.8	66.8	66.8	40	41.7	5	12	112	0.00	29.960 
14:35	67.1	67.1	67.1	39	41.3	4	10	90	0.00	29.958 
14:40	67.1	67.1	67.1	39	41.3	5	13	112	0.00	29.955 
14:45	67.1	67.1	67.1	40	42.0	5	13	112	0.00	29.953 
14:50	67.3	67.3	67.3	40	42.1	3	6	112	0.00	29.949 
14:55	67.3	67.3	67.3	39	41.5	5	10	112	0.00	29.944 
15:00	67.4	67.4	67.4	41	42.9	3	11	112	0.00	29.941 
15:05	67.8	67.8	67.8	42	43.9	4	10	112	0.00	29.940 
15:10	68.1	68.1	68.1	41	43.5	2	6	112	0.00	29.935 
15:15	68.3	68.3	68.3	41	43.7	4	9	112	0.00	29.929 
15:20	68.4	68.4	68.4	40	43.1	5	10	112	0.00	29.926 
15:25	68.4	68.4	68.4	40	43.1	3	7	112	0.00	29.925 
15:30	68.6	68.6	68.6	40	43.3	3	10	112	0.00	29.924 
15:35	68.8	68.8	68.8	41	44.1	4	12	90	0.00	29.922 
15:40	69.3	69.3	69.3	40	43.9	3	9	112	0.00	29.917 
15:45	69.4	69.4	69.4	42	45.3	4	9	112	0.00	29.912 
15:50	69.4	69.4	69.4	41	44.7	3	9	112	0.00	29.911 
15:55	69.4	69.4	69.4	41	44.7	2	5	90	0.00	29.910 
16:00	69.6	69.6	69.6	42	45.5	3	8	90	0.00	29.908 
16:05	69.4	69.4	69.4	41	44.7	3	10	112	0.00	29.907 
16:10	69.4	69.4	69.4	42	45.3	3	7	112	0.00	29.906 
16:15	69.6	69.6	69.6	44	46.7	3	7	112	0.00	29.904 
16:20	69.8	69.8	69.8	42	45.7	3	7	90	0.00	29.901 
16:25	69.8	69.8	69.8	43	46.3	3	11	112	0.00	29.898 
16:30	69.9	69.9	69.9	43	46.4	2	5	90	0.00	29.898 
16:35	69.9	69.9	69.9	43	46.4	2	5	90	0.00	29.896 
16:40	69.9	69.9	69.9	43	46.4	3	9	112	0.00	29.895 
16:45	69.8	69.8	69.8	44	46.9	2	5	90	0.00	29.897 
16:50	69.8	69.8	69.8	44	46.9	2	4	135	0.00	29.896 
16:55	69.9	69.9	69.9	44	47.0	2	5	112	0.00	29.894 
17:00	69.8	69.8	69.8	45	47.5	2	5	112	0.00	29.891 
17:05	69.8	69.8	69.8	46	48.1	2	5	90	0.00	29.890 
17:10	69.6	69.6	69.6	46	47.9	2	7	112	0.00	29.882 
17:15	69.6	69.6	69.6	46	47.9	1	3	112	0.00	29.883 
17:20	69.6	69.6	69.6	47	48.5	1	4	90	0.00	29.882 
17:25	69.6	69.6	69.6	48	49.0	2	6	90	0.00	29.879 
17:30	69.8	69.8	69.8	48	49.2	1	5	135	0.00	29.880 
17:35	69.8	69.8	69.8	48	49.2	2	4	135	0.00	29.879 
17:40	69.8	69.8	69.8	49	49.8	1	4	90	0.00	29.879 
17:45	69.6	69.6	69.6	49	49.6	1	4	112	0.00	29.876 
17:50	69.6	69.6	69.6	49	49.6	1	4	135	0.00	29.876 
17:55	69.4	69.4	69.4	50	49.9	1	4	135	0.00	29.875 
18:00	69.3	69.3	69.3	50	49.8	1	3	112	0.00	29.872 
18:05	69.1	69.1	69.1	51	50.2	0	1	112	0.00	29.869 
18:10	68.9	68.9	68.9	51	50.0	1	2	112	0.00	29.867 
18:15	68.8	68.8	68.8	52	50.4	0	2	112	0.00	29.864 
18:20	68.6	68.6	68.6	52	50.3	0	3	112	0.00	29.863 
18:25	68.3	68.3	68.3	52	50.0	1	3	112	0.00	29.863 
18:30	68.3	68.3	68.3	52	50.0	0	2	112	0.00	29.865 
18:35	68.1	68.1	68.1	53	50.3	0	2	112	0.00	29.863 
18:40	67.9	67.9	67.9	54	50.6	1	2	112	0.00	29.859 
18:45	67.6	67.6	67.6	54	50.4	0	1	112	0.00	29.858 
18:50	67.3	67.3	67.3	54	50.1	0	3	112	0.00	29.861 
18:55	67.1	67.1	67.1	55	50.4	0	1	112	0.00	29.863 
19:00	66.8	66.8	66.8	56	50.6	0	1	135	0.00	29.859 
19:05	66.4	66.4	66.4	56	50.2	0	1	135	0.00	29.851 
19:10	66.1	66.1	66.1	57	50.4	0	1	135	0.00	29.850 
19:15	65.8	65.8	65.8	58	50.6	0	1	135	0.00	29.848 
19:20	65.3	65.3	65.3	59	50.6	0	1	135	0.00	29.845 
19:25	64.8	64.8	64.8	60	50.6	0	2	135	0.00	29.843 
19:30	64.7	64.7	64.7	60	50.5	0	1	135	0.00	29.844 
19:35	64.5	64.5	64.5	61	50.7	0	1	135	0.00	29.845 
19:40	64.5	64.5	64.5	61	50.7	0	2	135	0.00	29.844 
19:45	64.5	64.5	64.5	61	50.7	0	1	135	0.00	29.837 
19:50	64.5	64.5	64.5	62	51.2	0	1	135	0.00	29.837 
19:55	64.7	64.7	64.7	61	50.9	0	3	135	0.00	29.842 
20:00	64.8	64.8	64.8	61	51.0	0	1	112	0.00	29.842 
20:05	64.8	64.8	64.8	62	51.5	0	1	112	0.00	29.841 
20:10	64.8	64.8	64.8	62	51.5	1	2	135	0.00	29.839 
20:15	64.8	64.8	64.8	62	51.5	1	3	135	0.00	29.842 
20:20	65.0	65.0	65.0	62	51.7	1	3	135	0.00	29.843 
20:25	65.0	65.0	65.0	62	51.7	1	4	112	0.00	29.841 
20:30	65.2	65.2	65.2	62	51.8	1	4	112	0.00	29.838 
20:35	65.2	65.2	65.2	63	52.3	1	4	135	0.00	29.837 
20:40	65.2	65.2	65.2	62	51.8	2	5	112	0.00	29.836 
20:45	65.3	65.3	65.3	62	51.9	2	4	112	0.00	29.832 
20:50	65.6	65.6	65.6	61	51.8	3	7	112	0.00	29.831 
20:55	65.8	65.8	65.8	60	51.5	2	4	112	0.00	29.830 
21:00	65.8	65.8	65.8	59	51.1	2	5	112	0.00	29.827 
21:05	65.8	65.8	65.8	59	51.1	3	6	112	0.00	29.821 
21:10	65.8	65.8	65.8	59	51.1	2	5	112	0.00	29.820 
21:15	65.8	65.8	65.8	59	51.1	3	6	112	0.00	29.816 
21:20	65.8	65.8	65.8	59	51.1	3	11	90	0.00	29.815 
21:25	65.6	65.6	65.6	59	50.9	3	7	90	0.00	29.811 
21:30	65.5	65.5	65.5	60	51.2	2	5	90	0.00	29.810 
21:35	65.3	65.3	65.3	60	51.1	3	8	90	0.00	29.809 
21:40	65.2	65.2	65.2	61	51.4	3	7	112	0.00	29.805 
21:45	64.8	64.8	64.8	61	51.0	3	9	135	0.00	29.804 
21:50	64.7	64.7	64.7	62	51.4	2	6	112	0.00	29.803 
21:55	64.5	64.5	64.5	62	51.2	3	6	90	0.00	29.803 
22:00	64.3	64.3	64.3	62	51.0	2	5	112	0.00	29.808 
22:05	64.3	64.3	64.3	63	51.4	3	5	112	0.00	29.801 
22:10	64.3	64.3	64.3	63	51.4	2	7	112	0.00	29.795 
22:15	64.3	64.3	64.3	63	51.4	3	7	112	0.00	29.793 
22:20	64.2	64.2	64.2	64	51.8	2	5	112	0.00	29.791 
22:25	64.2	64.2	64.2	64	51.8	2	6	112	0.00	29.790 
22:30	64.2	64.2	64.2	64	51.8	3	7	90	0.00	29.790 
22:35	64.0	64.0	64.0	65	52.0	2	5	90	0.00	29.789 
22:40	64.0	64.0	64.0	65	52.0	2	6	90	0.00	29.786 
22:45	64.2	64.2	64.2	65	52.2	2	5	112	0.00	29.780 
22:50	64.3	64.3	64.3	65	52.3	2	8	112	0.00	29.779 
22:55	64.5	64.5	64.5	65	52.5	3	7	90	0.00	29.779 
23:00	64.7	64.7	64.7	65	52.7	4	11	90	0.00	29.779 
23:05	64.8	64.8	64.8	65	52.8	3	10	112	0.00	29.773 
23:10	64.8	64.8	64.8	65	52.8	3	7	90	0.00	29.771 
23:15	65.0	65.0	65.0	65	52.9	3	6	112	0.00	29.769 
23:20	65.0	65.0	65.0	65	52.9	3	8	112	0.00	29.769 
23:25	65.2	65.2	65.2	65	53.1	4	9	90	0.00	29.770 
23:30	65.2	65.2	65.2	65	53.1	3	7	90	0.00	29.768 
23:35	65.3	65.3	65.3	65	53.2	4	11	90	0.00	29.769 
23:40	65.5	65.5	65.5	65	53.4	3	7	90	0.00	29.770 
23:45	65.5	65.5	65.5	65	53.4	4	10	90	0.00	29.768 
23:50	65.6	65.6	65.6	65	53.5	3	9	90	0.00	29.768 
23:55	65.6	65.6	65.6	65	53.5	4	9	90	0.00	29.767 

CoCoRaHS
IN-AL-39
A2 Web Hosting
Creative Commons License
GoDaddy
Look for:

loaded 2017-12-13 02:46:34 • last modified 2010-11-18 10:43:29
Privacy PolicyDisclaimer
• wx.awcolley.com is powered by PmWiki v.2002016 •
• all content (unless otherwise noted) © 2017 A W Colley